Time,TemperatureF,DewpointF,PressureIn,WindDirection,WindDirectionDegrees,WindSpeedMPH,WindSpeedGustMPH,Humidity,HourlyPrecipIn,Conditions,Clouds,dailyrainin,SoftwareType,DateUTC
2013-04-07 00:00:00,43.8,28.7,29.92,West,261,1.0,1.0,55,0.00,,,0.06,Wunderground v.1.15,2013-04-07 06:00:00,
2013-04-07 00:06:00,43.8,28.7,29.92,WSW,247,1.0,6.0,55,0.00,,,0.00,Wunderground v.1.15,2013-04-07 06:06:00,
2013-04-07 00:12:00,43.6,28.5,29.92,WSW,248,1.0,1.0,55,0.00,,,0.00,Wunderground v.1.15,2013-04-07 06:12:00,
2013-04-07 00:18:00,43.8,28.2,29.94,WSW,237,1.0,3.0,54,0.00,,,0.00,Wunderground v.1.15,2013-04-07 06:18:00,
2013-04-07 00:24:00,43.8,28.2,29.94,WSW,248,1.0,1.0,54,0.00,,,0.00,Wunderground v.1.15,2013-04-07 06:24:00,
2013-04-07 00:30:00,43.6,28.5,29.93,SSW,210,0.0,0.0,55,0.00,,,0.00,Wunderground v.1.15,2013-04-07 06:30:00,
2013-04-07 00:36:00,43.5,27.9,29.93,SW,236,0.0,2.0,54,0.00,,,0.00,Wunderground v.1.15,2013-04-07 06:36:00,
2013-04-07 00:42:00,43.1,28.0,29.93,WSW,248,0.0,1.0,55,0.00,,,0.00,Wunderground v.1.15,2013-04-07 06:42:00,
2013-04-07 00:48:00,42.6,27.5,29.94,WSW,257,0.0,1.0,55,0.00,,,0.00,Wunderground v.1.15,2013-04-07 06:48:00,
2013-04-07 00:54:00,42.6,27.5,29.94,West,271,0.0,1.0,55,0.00,,,0.00,Wunderground v.1.15,2013-04-07 06:54:00,
2013-04-07 01:00:00,42.2,27.2,29.93,West,272,1.0,1.0,55,0.00,,,0.00,Wunderground v.1.15,2013-04-07 07:00:00,
2013-04-07 01:06:00,41.9,27.3,29.93,WNW,282,0.0,1.0,56,0.00,,,0.00,Wunderground v.1.15,2013-04-07 07:06:00,
2013-04-07 01:12:00,41.6,27.5,29.93,West,261,0.0,0.0,57,0.00,,,0.00,Wunderground v.1.15,2013-04-07 07:12:00,
2013-04-07 01:18:00,41.5,27.4,29.91,West,267,0.0,0.0,57,0.00,,,0.00,Wunderground v.1.15,2013-04-07 07:18:00,
2013-04-07 01:24:00,41.1,27.4,29.91,West,277,0.0,0.0,58,0.00,,,0.00,Wunderground v.1.15,2013-04-07 07:24:00,
2013-04-07 01:30:00,40.8,27.6,29.92,West,261,0.0,0.0,59,0.00,,,0.00,Wunderground v.1.15,2013-04-07 07:30:00,
2013-04-07 01:38:00,40.5,27.3,29.92,West,271,0.0,0.0,59,0.00,,,0.00,Wunderground v.1.15,2013-04-07 07:38:00,
2013-04-07 01:44:00,39.2,26.5,29.92,South,172,0.0,0.0,60,0.00,,,0.00,Wunderground v.1.15,2013-04-07 07:44:00,
2013-04-07 01:50:00,37.8,26.7,29.92,South,171,0.0,0.0,64,0.00,,,0.00,Wunderground v.1.15,2013-04-07 07:50:00,
2013-04-07 01:56:00,37.2,27.2,29.92,South,175,0.0,0.0,67,0.00,,,0.00,Wunderground v.1.15,2013-04-07 07:56:00,
2013-04-07 02:02:00,36.9,27.3,29.93,South,175,0.0,0.0,68,0.00,,,0.00,Wunderground v.1.15,2013-04-07 08:02:00,
2013-04-07 02:08:00,36.6,27.4,29.93,South,175,0.0,0.0,69,0.00,,,0.00,Wunderground v.1.15,2013-04-07 08:08:00,
2013-04-07 02:14:00,36.5,28.0,29.93,South,175,0.0,0.0,71,0.00,,,0.00,Wunderground v.1.15,2013-04-07 08:14:00,
2013-04-07 02:20:00,35.8,27.3,29.93,South,184,0.0,0.0,71,0.00,,,0.00,Wunderground v.1.15,2013-04-07 08:20:00,
2013-04-07 02:26:00,35.8,27.7,29.93,South,185,0.0,0.0,72,0.00,,,0.00,Wunderground v.1.15,2013-04-07 08:26:00,
2013-04-07 02:32:00,35.5,27.4,29.93,South,185,0.0,0.0,72,0.00,,,0.00,Wunderground v.1.15,2013-04-07 08:32:00,
2013-04-07 02:38:00,35.5,27.7,29.93,South,185,0.0,0.0,73,0.00,,,0.00,Wunderground v.1.15,2013-04-07 08:38:00,
2013-04-07 02:44:00,35.2,27.7,29.93,South,185,0.0,0.0,74,0.00,,,0.00,Wunderground v.1.15,2013-04-07 08:44:00,
2013-04-07 02:50:00,35.0,27.5,29.93,South,185,0.0,0.0,74,0.00,,,0.00,Wunderground v.1.15,2013-04-07 08:50:00,
2013-04-07 02:56:00,35.8,29.0,29.93,South,182,0.0,0.0,76,0.00,,,0.00,Wunderground v.1.15,2013-04-07 08:56:00,
2013-04-07 03:02:00,36.5,29.0,29.91,SSW,199,0.0,0.0,74,0.00,,,0.00,Wunderground v.1.15,2013-04-07 09:02:00,
2013-04-07 03:08:00,37.0,28.8,29.91,SSW,199,0.0,0.0,72,0.00,,,0.00,Wunderground v.1.15,2013-04-07 09:08:00,
2013-04-07 03:14:00,37.0,28.8,29.91,South,169,0.0,2.0,72,0.00,,,0.00,Wunderground v.1.15,2013-04-07 09:14:00,
2013-04-07 03:20:00,36.9,29.1,29.91,South,169,0.0,0.0,73,0.00,,,0.00,Wunderground v.1.15,2013-04-07 09:20:00,
2013-04-07 03:26:00,36.9,29.1,29.91,South,169,0.0,0.0,73,0.00,,,0.00,Wunderground v.1.15,2013-04-07 09:26:00,
2013-04-07 03:32:00,36.9,29.1,29.91,South,169,0.0,0.0,73,0.00,,,0.00,Wunderground v.1.15,2013-04-07 09:32:00,
2013-04-07 03:38:00,36.9,29.1,29.91,South,169,0.0,0.0,73,0.00,,,0.00,Wunderground v.1.15,2013-04-07 09:38:00,
2013-04-07 03:44:00,36.9,29.1,29.91,South,169,0.0,0.0,73,0.00,,,0.00,Wunderground v.1.15,2013-04-07 09:44:00,
2013-04-07 03:50:00,36.8,29.0,29.90,South,169,0.0,0.0,73,0.00,,,0.00,Wunderground v.1.15,2013-04-07 09:50:00,
2013-04-07 03:56:00,36.8,29.0,29.90,SSE,168,0.0,0.0,73,0.00,,,0.00,Wunderground v.1.15,2013-04-07 09:56:00,
2013-04-07 04:02:00,36.8,29.0,29.90,SSE,168,0.0,0.0,73,0.00,,,0.00,Wunderground v.1.15,2013-04-07 10:02:00,
2013-04-07 04:08:00,36.5,29.0,29.90,SSE,168,0.0,0.0,74,0.00,,,0.00,Wunderground v.1.15,2013-04-07 10:08:00,
2013-04-07 04:14:00,36.2,28.7,29.90,SSE,168,0.0,0.0,74,0.00,,,0.00,Wunderground v.1.15,2013-04-07 10:14:00,
2013-04-07 04:20:00,35.9,28.4,29.91,SSE,168,0.0,0.0,74,0.00,,,0.00,Wunderground v.1.15,2013-04-07 10:20:00,
2013-04-07 04:26:00,35.8,28.3,29.91,SSE,168,0.0,0.0,74,0.00,,,0.00,Wunderground v.1.15,2013-04-07 10:26:00,
2013-04-07 04:32:00,35.6,28.5,29.91,SSE,168,0.0,0.0,75,0.00,,,0.00,Wunderground v.1.15,2013-04-07 10:32:00,
2013-04-07 04:38:00,35.5,28.4,29.91,SSE,168,0.0,0.0,75,0.00,,,0.00,Wunderground v.1.15,2013-04-07 10:38:00,
2013-04-07 04:44:00,35.5,28.4,29.91,SSE,168,0.0,0.0,75,0.00,,,0.00,Wunderground v.1.15,2013-04-07 10:44:00,
2013-04-07 04:50:00,35.3,28.5,29.90,SSE,168,0.0,0.0,76,0.00,,,0.00,Wunderground v.1.15,2013-04-07 10:50:00,
2013-04-07 04:56:00,35.2,28.4,29.90,SSE,168,0.0,0.0,76,0.00,,,0.00,Wunderground v.1.15,2013-04-07 10:56:00,
2013-04-07 05:02:00,35.2,28.4,29.91,SSE,168,0.0,0.0,76,0.00,,,0.00,Wunderground v.1.15,2013-04-07 11:02:00,
2013-04-07 05:08:00,35.2,28.4,29.91,SSE,168,0.0,0.0,76,0.00,,,0.00,Wunderground v.1.15,2013-04-07 11:08:00,
2013-04-07 05:14:00,35.3,28.5,29.91,SSE,168,0.0,0.0,76,0.00,,,0.00,Wunderground v.1.15,2013-04-07 11:14:00,
2013-04-07 05:20:00,35.3,28.5,29.90,SSE,168,0.0,0.0,76,0.00,,,0.00,Wunderground v.1.15,2013-04-07 11:20:00,
2013-04-07 05:26:00,35.2,28.4,29.90,SSE,168,0.0,0.0,76,0.00,,,0.00,Wunderground v.1.15,2013-04-07 11:26:00,
2013-04-07 05:32:00,35.3,28.5,29.89,SSE,168,0.0,0.0,76,0.00,,,0.00,Wunderground v.1.15,2013-04-07 11:32:00,
2013-04-07 05:38:00,35.3,28.5,29.89,SSE,168,0.0,0.0,76,0.00,,,0.00,Wunderground v.1.15,2013-04-07 11:38:00,
2013-04-07 05:44:00,35.3,28.5,29.89,SSE,168,0.0,0.0,76,0.00,,,0.00,Wunderground v.1.15,2013-04-07 11:44:00,
2013-04-07 05:50:00,35.3,28.5,29.89,SSE,168,0.0,0.0,76,0.00,,,0.00,Wunderground v.1.15,2013-04-07 11:50:00,
2013-04-07 05:56:00,35.3,28.5,29.89,SSE,168,0.0,0.0,76,0.00,,,0.00,Wunderground v.1.15,2013-04-07 11:56:00,
2013-04-07 06:02:00,35.3,28.5,29.89,SSE,168,0.0,0.0,76,0.00,,,0.00,Wunderground v.1.15,2013-04-07 12:02:00,
2013-04-07 06:08:00,35.6,28.8,29.89,SSE,168,0.0,0.0,76,0.00,,,0.00,Wunderground v.1.15,2013-04-07 12:08:00,
2013-04-07 06:14:00,35.8,29.0,29.89,SSE,168,0.0,0.0,76,0.00,,,0.00,Wunderground v.1.15,2013-04-07 12:14:00,
2013-04-07 06:20:00,35.9,28.7,29.86,SSE,168,0.0,0.0,75,0.00,,,0.00,Wunderground v.1.15,2013-04-07 12:20:00,
2013-04-07 06:26:00,35.9,28.7,29.86,SSE,168,0.0,0.0,75,0.00,,,0.00,Wunderground v.1.15,2013-04-07 12:26:00,
2013-04-07 06:32:00,36.0,28.8,29.86,SSE,168,0.0,0.0,75,0.00,,,0.00,Wunderground v.1.15,2013-04-07 12:32:00,
2013-04-07 06:38:00,36.0,28.8,29.86,SSE,168,0.0,0.0,75,0.00,,,0.00,Wunderground v.1.15,2013-04-07 12:38:00,
2013-04-07 06:44:00,35.9,28.7,29.86,SSE,168,0.0,0.0,75,0.00,,,0.00,Wunderground v.1.15,2013-04-07 12:44:00,
2013-04-07 06:50:00,36.0,28.5,29.86,SSE,168,0.0,0.0,74,0.00,,,0.00,Wunderground v.1.15,2013-04-07 12:50:00,
2013-04-07 06:58:00,36.0,28.5,29.86,SSE,168,0.0,0.0,74,0.00,,,0.00,Wunderground v.1.15,2013-04-07 12:58:00,
2013-04-07 07:04:00,36.0,28.5,29.85,SSE,168,0.0,0.0,74,0.00,,,0.00,Wunderground v.1.15,2013-04-07 13:04:00,
2013-04-07 07:10:00,36.0,28.8,29.85,SSE,168,0.0,0.0,75,0.00,,,0.00,Wunderground v.1.15,2013-04-07 13:10:00,
2013-04-07 07:16:00,36.0,28.8,29.85,SSE,168,0.0,0.0,75,0.00,,,0.00,Wunderground v.1.15,2013-04-07 13:16:00,
2013-04-07 07:22:00,36.2,29.0,29.85,SSE,168,0.0,0.0,75,0.00,,,0.00,Wunderground v.1.15,2013-04-07 13:22:00,
2013-04-07 07:28:00,36.2,28.7,29.85,SSE,168,0.0,0.0,74,0.00,,,0.00,Wunderground v.1.15,2013-04-07 13:28:00,
2013-04-07 07:34:00,36.2,28.7,29.85,SSE,168,0.0,0.0,74,0.00,,,0.00,Wunderground v.1.15,2013-04-07 13:34:00,
2013-04-07 07:40:00,36.2,28.7,29.85,SSE,168,0.0,0.0,74,0.00,,,0.00,Wunderground v.1.15,2013-04-07 13:40:00,
2013-04-07 07:46:00,36.3,28.8,29.84,South,169,0.0,0.0,74,0.00,,,0.00,Wunderground v.1.15,2013-04-07 13:46:00,
2013-04-07 07:52:00,36.5,28.7,29.84,South,169,0.0,0.0,73,0.00,,,0.00,Wunderground v.1.15,2013-04-07 13:52:00,
2013-04-07 07:58:00,36.6,28.8,29.84,South,169,0.0,0.0,73,0.00,,,0.00,Wunderground v.1.15,2013-04-07 13:58:00,
2013-04-07 08:04:00,36.9,29.1,29.84,South,169,0.0,0.0,73,0.00,,,0.00,Wunderground v.1.15,2013-04-07 14:04:00,
2013-04-07 08:10:00,37.0,29.5,29.84,South,169,0.0,0.0,74,0.00,,,0.00,Wunderground v.1.15,2013-04-07 14:10:00,
2013-04-07 08:16:00,37.0,29.5,29.84,South,169,0.0,0.0,74,0.00,,,0.00,Wunderground v.1.15,2013-04-07 14:16:00,
2013-04-07 08:22:00,37.0,29.5,29.84,South,169,0.0,0.0,74,0.00,,,0.00,Wunderground v.1.15,2013-04-07 14:22:00,
2013-04-07 08:28:00,37.0,29.5,29.84,South,169,0.0,0.0,74,0.00,,,0.00,Wunderground v.1.15,2013-04-07 14:28:00,
2013-04-07 08:34:00,37.2,29.3,29.84,South,169,0.0,0.0,73,0.00,,,0.00,Wunderground v.1.15,2013-04-07 14:34:00,
2013-04-07 08:40:00,37.3,29.1,29.84,South,169,0.0,0.0,72,0.00,,,0.00,Wunderground v.1.15,2013-04-07 14:40:00,
2013-04-07 08:46:00,37.5,29.3,29.82,South,169,0.0,0.0,72,0.00,,,0.00,Wunderground v.1.15,2013-04-07 14:46:00,
2013-04-07 08:52:00,37.6,29.0,29.82,South,169,0.0,0.0,71,0.00,,,0.00,Wunderground v.1.15,2013-04-07 14:52:00,
2013-04-07 08:58:00,37.9,29.3,29.82,South,169,0.0,0.0,71,0.00,,,0.00,Wunderground v.1.15,2013-04-07 14:58:00,
2013-04-07 09:04:00,38.0,29.4,29.82,South,169,0.0,0.0,71,0.00,,,0.00,Wunderground v.1.15,2013-04-07 15:04:00,
2013-04-07 09:10:00,38.0,29.4,29.82,South,169,0.0,0.0,71,0.00,,,0.00,Wunderground v.1.15,2013-04-07 15:10:00,
2013-04-07 09:16:00,38.3,29.7,29.81,South,169,0.0,0.0,71,0.00,,,0.00,Wunderground v.1.15,2013-04-07 15:16:00,
2013-04-07 09:22:00,38.6,30.0,29.81,South,169,0.0,0.0,71,0.00,,,0.00,Wunderground v.1.15,2013-04-07 15:22:00,
2013-04-07 09:28:00,38.9,30.3,29.81,South,169,0.0,0.0,71,0.00,,,0.00,Wunderground v.1.15,2013-04-07 15:28:00,
2013-04-07 09:34:00,39.1,30.5,29.81,South,169,0.0,0.0,71,0.00,,,0.00,Wunderground v.1.15,2013-04-07 15:34:00,
2013-04-07 09:40:00,39.5,30.5,29.81,South,169,0.0,0.0,70,0.00,,,0.00,Wunderground v.1.15,2013-04-07 15:40:00,
2013-04-07 09:46:00,39.8,30.5,29.79,South,169,0.0,0.0,69,0.00,,,0.00,Wunderground v.1.15,2013-04-07 15:46:00,
2013-04-07 09:52:00,40.1,30.4,29.79,South,169,0.0,0.0,68,0.00,,,0.00,Wunderground v.1.15,2013-04-07 15:52:00,
2013-04-07 09:58:00,40.5,30.8,29.79,South,169,0.0,0.0,68,0.00,,,0.00,Wunderground v.1.15,2013-04-07 15:58:00,
2013-04-07 10:04:00,40.8,30.7,29.78,South,169,0.0,0.0,67,0.00,,,0.00,Wunderground v.1.15,2013-04-07 16:04:00,
2013-04-07 10:10:00,41.1,31.0,29.78,South,169,0.0,0.0,67,0.00,,,0.00,Wunderground v.1.15,2013-04-07 16:10:00,
2013-04-07 10:16:00,41.5,31.7,29.78,South,169,0.0,0.0,68,0.00,,,0.00,Wunderground v.1.15,2013-04-07 16:16:00,
2013-04-07 10:22:00,41.8,31.6,29.78,South,169,0.0,0.0,67,0.00,,,0.00,Wunderground v.1.15,2013-04-07 16:22:00,
2013-04-07 10:28:00,42.5,32.3,29.78,SSE,168,0.0,0.0,67,0.00,,,0.00,Wunderground v.1.15,2013-04-07 16:28:00,
2013-04-07 10:34:00,43.5,32.5,29.75,NE,56,0.0,0.0,65,0.00,,,0.00,Wunderground v.1.15,2013-04-07 16:34:00,
2013-04-07 10:40:00,43.9,32.9,29.75,NE,55,0.0,0.0,65,0.00,,,0.00,Wunderground v.1.15,2013-04-07 16:40:00,
2013-04-07 10:46:00,44.3,33.3,29.74,NNE,20,0.0,0.0,65,0.00,,,0.00,Wunderground v.1.15,2013-04-07 16:46:00,
2013-04-07 10:52:00,44.8,33.4,29.74,NE,49,0.0,0.0,64,0.00,,,0.00,Wunderground v.1.15,2013-04-07 16:52:00,
2013-04-07 10:58:00,45.2,32.9,29.74,NE,49,0.0,0.0,62,0.00,,,0.00,Wunderground v.1.15,2013-04-07 16:58:00,
2013-04-07 11:04:00,46.2,32.7,29.73,NE,49,0.0,1.0,59,0.00,,,0.00,Wunderground v.1.15,2013-04-07 17:04:00,
2013-04-07 11:10:00,46.7,32.7,29.73,ENE,78,1.0,1.0,58,0.00,,,0.00,Wunderground v.1.15,2013-04-07 17:10:00,
2013-04-07 11:16:00,46.8,31.9,29.72,ENE,78,0.0,1.0,56,0.00,,,0.00,Wunderground v.1.15,2013-04-07 17:16:00,
2013-04-07 11:22:00,47.1,31.7,29.72,ENE,72,0.0,0.0,55,0.00,,,0.00,Wunderground v.1.15,2013-04-07 17:22:00,
2013-04-07 11:28:00,47.3,31.9,29.72,SE,126,0.0,2.0,55,0.00,,,0.00,Wunderground v.1.15,2013-04-07 17:28:00,
2013-04-07 11:34:00,47.6,31.3,29.72,East,82,0.0,0.0,53,0.00,,,0.00,Wunderground v.1.15,2013-04-07 17:34:00,
2013-04-07 11:40:00,47.9,31.6,29.72,NE,35,0.0,0.0,53,0.00,,,0.00,Wunderground v.1.15,2013-04-07 17:40:00,
2013-04-07 11:50:00,47.7,30.9,29.71,ESE,114,0.0,0.0,52,0.00,,,0.00,Wunderground v.1.15,2013-04-07 17:50:00,
2013-04-07 11:56:00,47.7,30.4,29.71,ENE,76,0.0,0.0,51,0.00,,,0.00,Wunderground v.1.15,2013-04-07 17:56:00,
2013-04-07 12:02:00,47.9,30.6,29.71,ENE,76,0.0,0.0,51,0.00,,,0.00,Wunderground v.1.15,2013-04-07 18:02:00,
2013-04-07 12:08:00,48.3,31.0,29.71,NE,52,0.0,0.0,51,0.00,,,0.00,Wunderground v.1.15,2013-04-07 18:08:00,
2013-04-07 12:14:00,48.6,31.3,29.71,NE,52,0.0,0.0,51,0.00,,,0.00,Wunderground v.1.15,2013-04-07 18:14:00,
2013-04-07 12:20:00,49.2,31.3,29.71,NE,52,0.0,0.0,50,0.00,,,0.00,Wunderground v.1.15,2013-04-07 18:20:00,
2013-04-07 12:26:00,49.2,30.8,29.71,NE,52,0.0,0.0,49,0.00,,,0.00,Wunderground v.1.15,2013-04-07 18:26:00,
2013-04-07 12:32:00,49.1,30.7,29.70,NE,52,0.0,0.0,49,0.00,,,0.00,Wunderground v.1.15,2013-04-07 18:32:00,
2013-04-07 12:38:00,49.6,30.7,29.70,NE,52,0.0,0.0,48,0.00,,,0.00,Wunderground v.1.15,2013-04-07 18:38:00,
2013-04-07 12:44:00,50.2,30.7,29.70,North,352,0.0,3.0,47,0.00,,,0.00,Wunderground v.1.15,2013-04-07 18:44:00,
2013-04-07 12:50:00,50.2,30.7,29.69,NNW,346,1.0,1.0,47,0.00,,,0.00,Wunderground v.1.15,2013-04-07 18:50:00,
2013-04-07 12:56:00,49.5,30.6,29.69,NNE,16,1.0,1.0,48,0.00,,,0.00,Wunderground v.1.15,2013-04-07 18:56:00,
2013-04-07 13:02:00,49.8,30.9,29.69,North,11,1.0,1.0,48,0.00,,,0.00,Wunderground v.1.15,2013-04-07 19:02:00,
2013-04-07 13:08:00,49.8,31.4,29.69,NNW,336,1.0,2.0,49,0.00,,,0.00,Wunderground v.1.15,2013-04-07 19:08:00,
2013-04-07 13:14:00,49.4,31.5,29.69,WNW,284,1.0,2.0,50,0.00,,,0.00,Wunderground v.1.15,2013-04-07 19:14:00,
2013-04-07 13:20:00,48.9,31.1,29.72,WNW,285,2.0,5.0,50,0.00,,,0.00,Wunderground v.1.15,2013-04-07 19:20:00,
2013-04-07 13:28:00,47.9,33.8,29.72,WNW,285,4.0,11.0,58,0.00,,,0.00,Wunderground v.1.15,2013-04-07 19:28:00,
2013-04-07 13:34:00,46.5,33.4,29.72,West,261,6.0,7.0,60,0.00,,,0.00,Wunderground v.1.15,2013-04-07 19:34:00,
2013-04-07 13:40:00,46.1,33.4,29.72,WSW,254,2.0,2.0,61,0.00,,,0.00,Wunderground v.1.15,2013-04-07 19:40:00,
2013-04-07 13:46:00,46.0,34.1,29.73,WSW,241,0.0,2.0,63,0.00,,,0.00,Wunderground v.1.15,2013-04-07 19:46:00,
2013-04-07 13:52:00,46.0,34.5,29.73,WSW,250,0.0,0.0,64,0.00,,,0.00,Wunderground v.1.15,2013-04-07 19:52:00,
2013-04-07 13:58:00,46.7,34.8,29.73,SW,219,0.0,0.0,63,0.00,,,0.00,Wunderground v.1.15,2013-04-07 19:58:00,
2013-04-07 14:04:00,48.2,35.8,29.71,South,176,0.0,0.0,62,0.00,,,0.00,Wunderground v.1.15,2013-04-07 20:04:00,
2013-04-07 14:10:00,48.6,34.9,29.71,South,182,0.0,0.0,59,0.00,,,0.00,Wunderground v.1.15,2013-04-07 20:10:00,
2013-04-07 14:16:00,48.6,34.5,29.71,SSE,162,0.0,0.0,58,0.00,,,0.00,Wunderground v.1.15,2013-04-07 20:16:00,
2013-04-07 14:22:00,49.1,33.6,29.71,SSE,161,2.0,5.0,55,0.00,,,0.00,Wunderground v.1.15,2013-04-07 20:22:00,
2013-04-07 14:28:00,49.1,34.5,29.71,South,182,2.0,5.0,57,0.00,,,0.00,Wunderground v.1.15,2013-04-07 20:28:00,
2013-04-07 14:34:00,49.5,34.9,29.70,SSE,147,1.0,3.0,57,0.00,,,0.00,Wunderground v.1.15,2013-04-07 20:34:00,
2013-04-07 14:40:00,49.1,34.1,29.70,South,186,1.0,1.0,56,0.00,,,0.00,Wunderground v.1.15,2013-04-07 20:40:00,
2013-04-07 14:46:00,49.2,34.2,29.69,South,176,1.0,1.0,56,0.00,,,0.00,Wunderground v.1.15,2013-04-07 20:46:00,
2013-04-07 14:52:00,49.1,34.1,29.69,SSE,168,0.0,0.0,56,0.00,,,0.00,Wunderground v.1.15,2013-04-07 20:52:00,
2013-04-07 14:58:00,49.2,34.2,29.69,SSW,198,0.0,4.0,56,0.00,,,0.00,Wunderground v.1.15,2013-04-07 20:58:00,
2013-04-07 15:04:00,49.9,34.4,29.69,SW,230,1.0,1.0,55,0.00,,,0.00,Wunderground v.1.15,2013-04-07 21:04:00,
2013-04-07 15:10:00,50.5,34.0,29.69,SSW,200,0.0,0.0,53,0.00,,,0.00,Wunderground v.1.15,2013-04-07 21:10:00,
2013-04-07 15:16:00,50.4,33.4,29.67,SSW,213,0.0,0.0,52,0.00,,,0.00,Wunderground v.1.15,2013-04-07 21:16:00,
2013-04-07 15:22:00,49.9,33.0,29.67,SSW,192,1.0,1.0,52,0.00,,,0.00,Wunderground v.1.15,2013-04-07 21:22:00,
2013-04-07 15:28:00,50.2,33.7,29.67,SSW,192,0.0,1.0,53,0.00,,,0.00,Wunderground v.1.15,2013-04-07 21:28:00,
2013-04-07 15:34:00,49.9,34.4,29.67,SSW,196,0.0,0.0,55,0.00,,,0.00,Wunderground v.1.15,2013-04-07 21:34:00,
2013-04-07 15:40:00,50.2,34.6,29.67,South,182,0.0,0.0,55,0.00,,,0.00,Wunderground v.1.15,2013-04-07 21:40:00,
2013-04-07 15:48:00,50.1,34.1,29.67,SSW,193,0.0,0.0,54,0.00,,,0.00,Wunderground v.1.15,2013-04-07 21:48:00,
2013-04-07 15:54:00,49.9,33.9,29.67,SSW,200,0.0,0.0,54,0.00,,,0.00,Wunderground v.1.15,2013-04-07 21:54:00,
2013-04-07 16:00:00,49.8,33.3,29.66,SSW,198,0.0,0.0,53,0.00,,,0.00,Wunderground v.1.15,2013-04-07 22:00:00,
2013-04-07 16:06:00,50.1,33.6,29.66,SSW,198,0.0,0.0,53,0.00,,,0.00,Wunderground v.1.15,2013-04-07 22:06:00,
2013-04-07 16:12:00,50.1,34.1,29.66,SSW,198,0.0,0.0,54,0.00,,,0.00,Wunderground v.1.15,2013-04-07 22:12:00,
2013-04-07 16:18:00,49.6,34.1,29.68,WNW,289,0.0,6.0,55,0.00,,,0.00,Wunderground v.1.15,2013-04-07 22:18:00,
2013-04-07 16:24:00,46.2,32.7,29.68,NW,305,9.0,21.0,59,0.00,,,0.00,Wunderground v.1.15,2013-04-07 22:24:00,
2013-04-07 16:30:00,43.2,33.7,29.73,NW,313,16.0,16.0,69,0.11,,,0.02,Wunderground v.1.15,2013-04-07 22:30:00,
2013-04-07 16:36:00,41.2,34.2,29.73,WNW,296,14.0,16.0,76,0.84,,,0.09,Wunderground v.1.15,2013-04-07 22:36:00,
2013-04-07 16:42:00,41.2,35.2,29.73,WNW,288,10.0,12.0,79,0.25,,,0.11,Wunderground v.1.15,2013-04-07 22:42:00,
2013-04-07 16:48:00,41.2,35.5,29.75,WNW,287,5.0,12.0,80,0.19,,,0.13,Wunderground v.1.15,2013-04-07 22:48:00,
2013-04-07 16:54:00,41.2,35.8,29.75,South,178,2.0,4.0,81,0.18,,,0.15,Wunderground v.1.15,2013-04-07 22:54:00,
2013-04-07 17:00:00,41.1,35.7,29.75,South,178,0.0,0.0,81,0.08,,,0.15,Wunderground v.1.15,2013-04-07 23:00:00,
2013-04-07 17:06:00,41.2,36.1,29.75,South,178,0.0,0.0,82,0.04,,,0.15,Wunderground v.1.15,2013-04-07 23:06:00,
2013-04-07 17:12:00,40.9,35.5,29.75,South,178,0.0,0.0,81,0.00,,,0.16,Wunderground v.1.15,2013-04-07 23:12:00,
2013-04-07 17:18:00,41.2,35.5,29.74,SE,133,0.0,0.0,80,0.00,,,0.16,Wunderground v.1.15,2013-04-07 23:18:00,
2013-04-07 17:24:00,41.5,35.8,29.74,SE,143,0.0,0.0,80,0.00,,,0.16,Wunderground v.1.15,2013-04-07 23:24:00,
2013-04-07 17:30:00,41.5,35.8,29.75,SE,143,0.0,0.0,80,0.00,,,0.16,Wunderground v.1.15,2013-04-07 23:30:00,
2013-04-07 17:36:00,41.5,35.8,29.75,SSE,167,1.0,3.0,80,0.00,,,0.16,Wunderground v.1.15,2013-04-07 23:36:00,
2013-04-07 17:42:00,41.8,36.1,29.75,South,182,3.0,6.0,80,0.00,,,0.16,Wunderground v.1.15,2013-04-07 23:42:00,
2013-04-07 17:48:00,41.9,36.2,29.76,South,181,5.0,7.0,80,0.00,,,0.16,Wunderground v.1.15,2013-04-07 23:48:00,
2013-04-07 17:54:00,42.1,36.4,29.76,SSW,192,6.0,7.0,80,0.00,,,0.17,Wunderground v.1.15,2013-04-07 23:54:00,
2013-04-07 18:00:00,41.6,35.2,29.78,SSW,213,7.0,7.0,78,0.04,,,0.18,Wunderground v.1.15,2013-04-08 00:00:00,
2013-04-07 18:06:00,41.5,35.5,29.78,West,265,5.0,8.0,79,0.14,,,0.19,Wunderground v.1.15,2013-04-08 00:06:00,
2013-04-07 18:12:00,40.5,34.8,29.78,West,261,7.0,14.0,80,0.07,,,0.20,Wunderground v.1.15,2013-04-08 00:12:00,
2013-04-07 18:18:00,39.8,34.4,29.78,West,277,11.0,14.0,81,0.09,,,0.21,Wunderground v.1.15,2013-04-08 00:18:00,
2013-04-07 18:24:00,39.2,34.2,29.78,WSW,246,12.0,18.0,82,0.09,,,0.22,Wunderground v.1.15,2013-04-08 00:24:00,
2013-04-07 18:30:00,39.1,34.4,29.80,West,278,14.0,14.0,83,0.18,,,0.23,Wunderground v.1.15,2013-04-08 00:30:00,
2013-04-07 18:36:00,39.1,34.1,29.80,West,270,15.0,19.0,82,0.17,,,0.25,Wunderground v.1.15,2013-04-08 00:36:00,
2013-04-07 18:42:00,38.9,33.9,29.80,NW,308,16.0,18.0,82,0.12,,,0.26,Wunderground v.1.15,2013-04-08 00:42:00,
2013-04-07 18:48:00,38.2,33.2,29.81,WNW,287,17.0,19.0,82,0.12,,,0.27,Wunderground v.1.15,2013-04-08 00:48:00,
2013-04-07 18:54:00,37.3,32.3,29.81,NW,316,19.0,22.0,82,0.20,,,0.29,Wunderground v.1.15,2013-04-08 00:54:00,
2013-04-07 19:00:00,36.0,31.0,29.84,WNW,292,20.0,25.0,82,0.23,,,0.31,Wunderground v.1.15,2013-04-08 01:00:00,
2013-04-07 19:06:00,35.3,30.7,29.84,WNW,294,22.0,25.0,83,0.15,,,0.32,Wunderground v.1.15,2013-04-08 01:06:00,
2013-04-07 19:12:00,34.9,30.3,29.84,NW,306,18.0,19.0,83,0.12,,,0.33,Wunderground v.1.15,2013-04-08 01:12:00,
2013-04-07 19:18:00,34.3,30.0,29.85,WNW,301,16.0,24.0,84,0.05,,,0.33,Wunderground v.1.15,2013-04-08 01:18:00,
2013-04-07 19:24:00,34.0,29.7,29.85,NW,306,16.0,19.0,84,0.04,,,0.34,Wunderground v.1.15,2013-04-08 01:24:00,
2013-04-07 19:30:00,33.5,29.5,29.88,WNW,299,16.0,16.0,85,0.04,,,0.34,Wunderground v.1.15,2013-04-08 01:30:00,
2013-04-07 19:36:00,33.4,29.4,29.88,NW,323,17.0,19.0,85,0.04,,,0.34,Wunderground v.1.15,2013-04-08 01:36:00,
2013-04-07 19:42:00,33.1,29.4,29.88,WNW,289,16.0,16.0,86,0.00,,,0.34,Wunderground v.1.15,2013-04-08 01:42:00,
2013-04-07 19:48:00,32.9,29.2,29.88,NW,308,14.0,16.0,86,0.00,,,0.34,Wunderground v.1.15,2013-04-08 01:48:00,
2013-04-07 19:54:00,32.8,29.1,29.88,NW,313,15.0,18.0,86,0.00,,,0.34,Wunderground v.1.15,2013-04-08 01:54:00,
2013-04-07 20:00:00,32.8,29.1,29.89,NW,309,14.0,19.0,86,0.00,,,0.34,Wunderground v.1.15,2013-04-08 02:00:00,
2013-04-07 20:06:00,32.7,29.0,29.89,NNW,328,15.0,19.0,86,0.00,,,0.34,Wunderground v.1.15,2013-04-08 02:06:00,
2013-04-07 20:12:00,32.5,28.5,29.89,WNW,302,16.0,18.0,85,0.00,,,0.34,Wunderground v.1.15,2013-04-08 02:12:00,
2013-04-07 20:18:00,32.7,28.7,29.90,NW,325,15.0,18.0,85,0.00,,,0.34,Wunderground v.1.15,2013-04-08 02:18:00,
2013-04-07 20:24:00,32.8,28.5,29.90,NW,322,15.0,16.0,84,0.00,,,0.34,Wunderground v.1.15,2013-04-08 02:24:00,
2013-04-07 20:30:00,32.9,28.0,29.91,NW,313,16.0,16.0,82,0.00,,,0.34,Wunderground v.1.15,2013-04-08 02:30:00,
2013-04-07 20:36:00,32.9,27.4,29.91,NW,325,15.0,17.0,80,0.00,,,0.34,Wunderground v.1.15,2013-04-08 02:36:00,
2013-04-07 20:42:00,32.9,27.1,29.91,NW,318,15.0,15.0,79,0.00,,,0.34,Wunderground v.1.15,2013-04-08 02:42:00,
2013-04-07 20:48:00,33.1,27.0,29.93,NW,313,15.0,16.0,78,0.00,,,0.34,Wunderground v.1.15,2013-04-08 02:48:00,
2013-04-07 20:54:00,33.1,26.4,29.93,NW,306,16.0,18.0,76,0.00,,,0.34,Wunderground v.1.15,2013-04-08 02:54:00,
2013-04-07 21:00:00,33.1,26.0,29.94,NW,318,16.0,16.0,75,0.00,,,0.34,Wunderground v.1.15,2013-04-08 03:00:00,
2013-04-07 21:06:00,33.1,26.0,29.94,NW,322,15.0,18.0,75,0.00,,,0.34,Wunderground v.1.15,2013-04-08 03:06:00,
2013-04-07 21:12:00,33.1,25.7,29.94,NNW,339,16.0,17.0,74,0.00,,,0.34,Wunderground v.1.15,2013-04-08 03:12:00,
2013-04-07 21:18:00,33.1,25.7,29.93,WNW,298,14.0,17.0,74,0.00,,,0.34,Wunderground v.1.15,2013-04-08 03:18:00,
2013-04-07 21:24:00,32.9,25.5,29.93,NW,312,14.0,18.0,74,0.00,,,0.34,Wunderground v.1.15,2013-04-08 03:24:00,
2013-04-07 21:30:00,32.8,25.4,29.95,NW,316,14.0,17.0,74,0.00,,,0.34,Wunderground v.1.15,2013-04-08 03:30:00,
2013-04-07 21:36:00,32.8,25.4,29.95,NW,312,13.0,17.0,74,0.00,,,0.34,Wunderground v.1.15,2013-04-08 03:36:00,
2013-04-07 21:42:00,32.5,25.5,29.95,NNW,333,12.0,13.0,75,0.00,,,0.34,Wunderground v.1.15,2013-04-08 03:42:00,
2013-04-07 21:48:00,32.4,25.7,29.96,NW,313,12.0,17.0,76,0.00,,,0.34,Wunderground v.1.15,2013-04-08 03:48:00,
2013-04-07 21:54:00,32.1,25.7,29.96,NW,322,13.0,13.0,77,0.00,,,0.34,Wunderground v.1.15,2013-04-08 03:54:00,
2013-04-07 22:00:00,31.9,25.8,29.97,NW,312,12.0,14.0,78,0.00,,,0.34,Wunderground v.1.15,2013-04-08 04:00:00,
2013-04-07 22:04:00,31.6,25.5,29.97,NW,319,12.0,14.0,78,0.00,,,0.34,Wunderground v.1.15,2013-04-08 04:04:00,
2013-04-07 22:06:00,31.6,25.5,29.97,NW,322,12.0,14.0,78,0.00,,,0.34,Wunderground v.1.15,2013-04-08 04:06:00,
2013-04-07 22:12:00,31.5,25.4,29.97,NW,322,13.0,14.0,78,0.00,,,0.34,Wunderground v.1.15,2013-04-08 04:12:00,
2013-04-07 22:18:00,31.3,25.2,29.95,WNW,299,12.0,14.0,78,0.00,,,0.34,Wunderground v.1.15,2013-04-08 04:18:00,
2013-04-07 22:24:00,31.3,25.2,29.95,NW,316,12.0,13.0,78,0.00,,,0.34,Wunderground v.1.15,2013-04-08 04:24:00,
2013-04-07 22:30:00,31.2,25.1,29.98,NW,320,13.0,13.0,78,0.00,,,0.34,Wunderground v.1.15,2013-04-08 04:30:00,
2013-04-07 22:36:00,31.0,24.9,29.98,West,278,12.0,14.0,78,0.00,,,0.34,Wunderground v.1.15,2013-04-08 04:36:00,
2013-04-07 22:42:00,30.9,24.5,29.98,NW,318,12.0,17.0,77,0.00,,,0.34,Wunderground v.1.15,2013-04-08 04:42:00,
2013-04-07 22:48:00,30.9,24.2,29.98,NW,319,13.0,17.0,76,0.00,,,0.34,Wunderground v.1.15,2013-04-08 04:48:00,
2013-04-07 22:54:00,30.7,24.0,29.98,NW,313,13.0,13.0,76,0.00,,,0.34,Wunderground v.1.15,2013-04-08 04:54:00,
2013-04-07 23:00:00,30.7,23.7,29.98,NW,318,14.0,14.0,75,0.00,,,0.34,Wunderground v.1.15,2013-04-08 05:00:00,
2013-04-07 23:06:00,30.7,23.7,29.98,NW,316,13.0,14.0,75,0.00,,,0.00,Wunderground v.1.15,2013-04-08 05:06:00,
2013-04-07 23:12:00,30.7,23.4,29.98,NW,320,12.0,16.0,74,0.00,,,0.00,Wunderground v.1.15,2013-04-08 05:12:00,
2013-04-07 23:18:00,30.7,23.4,29.98,NW,326,11.0,17.0,74,0.00,,,0.00,Wunderground v.1.15,2013-04-08 05:18:00,
2013-04-07 23:24:00,30.6,23.3,29.98,WNW,292,10.0,11.0,74,0.00,,,0.00,Wunderground v.1.15,2013-04-08 05:24:00,
2013-04-07 23:30:00,30.6,23.3,29.99,NW,326,11.0,12.0,74,0.00,,,0.00,Wunderground v.1.15,2013-04-08 05:30:00,
2013-04-07 23:36:00,30.6,23.3,29.99,WNW,298,11.0,12.0,74,0.00,,,0.00,Wunderground v.1.15,2013-04-08 05:36:00,
2013-04-07 23:42:00,30.6,22.6,29.99,NNW,340,13.0,13.0,72,0.00,,,0.00,Wunderground v.1.15,2013-04-08 05:42:00,
2013-04-07 23:48:00,30.6,22.6,29.99,NNW,330,10.0,13.0,72,0.00,,,0.00,Wunderground v.1.15,2013-04-08 05:48:00,
2013-04-07 23:54:00,30.1,22.2,29.99,NW,323,10.0,10.0,72,0.00,,,0.00,Wunderground v.1.15,2013-04-08 05:54:00,